sensor_id;sensor_type;location;lat;lon;timestamp;pressure;altitude;pressure_sealevel;temperature;humidity
22862;BME280;11598;50.652;6.172;2022-12-18T00:08:10;97348.97;;;-4.62;60.00
22862;BME280;11598;50.652;6.172;2022-12-18T00:18:11;97349.81;;;-4.57;59.25
22862;BME280;11598;50.652;6.172;2022-12-18T00:28:11;97346.44;;;-4.61;59.01
22862;BME280;11598;50.652;6.172;2022-12-18T00:38:11;97354.88;;;-4.63;58.76
22862;BME280;11598;50.652;6.172;2022-12-18T00:48:12;97341.34;;;-4.64;58.38
22862;BME280;11598;50.652;6.172;2022-12-18T00:58:15;97343.91;;;-4.75;58.49
22862;BME280;11598;50.652;6.172;2022-12-18T01:18:18;97331.22;;;-4.82;58.67
22862;BME280;11598;50.652;6.172;2022-12-18T01:28:18;97319.38;;;-4.71;58.69
22862;BME280;11598;50.652;6.172;2022-12-18T01:38:19;97309.22;;;-4.48;58.42
22862;BME280;11598;50.652;6.172;2022-12-18T01:48:19;97322.75;;;-4.43;58.26
22862;BME280;11598;50.652;6.172;2022-12-18T01:58:24;97329.53;;;-4.53;59.09
22862;BME280;11598;50.652;6.172;2022-12-18T02:19:00;97297.41;;;-4.78;61.11
22862;BME280;11598;50.652;6.172;2022-12-18T02:29:10;97279.66;;;-4.54;61.88
22862;BME280;11598;50.652;6.172;2022-12-18T02:39:13;97281.31;;;-4.36;61.66
22862;BME280;11598;50.652;6.172;2022-12-18T02:59:43;97246.50;;;-3.92;61.13
22862;BME280;11598;50.652;6.172;2022-12-18T03:09:50;97246.41;;;-3.75;61.22
22862;BME280;11598;50.652;6.172;2022-12-18T03:19:54;97224.31;;;-3.63;61.19
22862;BME280;11598;50.652;6.172;2022-12-18T03:30:05;97225.97;;;-3.58;61.55
22862;BME280;11598;50.652;6.172;2022-12-18T03:40:10;97225.16;;;-3.64;61.75
22862;BME280;11598;50.652;6.172;2022-12-18T04:00:39;97206.53;;;-3.63;61.88
22862;BME280;11598;50.652;6.172;2022-12-18T04:10:40;97189.63;;;-3.64;61.94
22862;BME280;11598;50.652;6.172;2022-12-18T04:20:40;97177.72;;;-3.60;61.48
22862;BME280;11598;50.652;6.172;2022-12-18T04:30:40;97159.03;;;-3.51;61.03
22862;BME280;11598;50.652;6.172;2022-12-18T04:40:41;97158.97;;;-3.44;60.83
22862;BME280;11598;50.652;6.172;2022-12-18T04:50:41;97158.09;;;-3.40;60.17
22862;BME280;11598;50.652;6.172;2022-12-18T05:00:41;97173.31;;;-3.33;59.55
22862;BME280;11598;50.652;6.172;2022-12-18T05:10:42;97194.47;;;-3.31;59.23
22862;BME280;11598;50.652;6.172;2022-12-18T05:20:42;97197.84;;;-3.32;59.34
22862;BME280;11598;50.652;6.172;2022-12-18T05:30:47;97203.78;;;-3.29;58.58
22862;BME280;11598;50.652;6.172;2022-12-18T05:40:48;97214.75;;;-3.24;58.09
22862;BME280;11598;50.652;6.172;2022-12-18T05:50:50;97215.59;;;-3.26;57.57
22862;BME280;11598;50.652;6.172;2022-12-18T06:00:51;97201.13;;;-3.15;55.28
22862;BME280;11598;50.652;6.172;2022-12-18T06:10:52;97196.72;;;-2.99;54.79
22862;BME280;11598;50.652;6.172;2022-12-18T06:20:56;97179.59;;;-2.77;53.23
22862;BME280;11598;50.652;6.172;2022-12-18T06:30:56;97175.19;;;-2.64;52.68
22862;BME280;11598;50.652;6.172;2022-12-18T06:40:57;97170.81;;;-2.50;51.67
22862;BME280;11598;50.652;6.172;2022-12-18T06:50:58;97174.91;;;-2.35;50.75
22862;BME280;11598;50.652;6.172;2022-12-18T07:01:03;97186.63;;;-2.23;50.10
22862;BME280;11598;50.652;6.172;2022-12-18T07:11:04;97188.19;;;-2.11;49.77
22862;BME280;11598;50.652;6.172;2022-12-18T07:21:06;97170.31;;;-2.08;49.76
22862;BME280;11598;50.652;6.172;2022-12-18T07:31:12;97165.22;;;-2.08;50.08
22862;BME280;11598;50.652;6.172;2022-12-18T07:41:13;97151.59;;;-2.06;49.59
22862;BME280;11598;50.652;6.172;2022-12-18T07:51:14;97136.22;;;-1.97;48.71
22862;BME280;11598;50.652;6.172;2022-12-18T08:01:14;97137.66;;;-1.80;47.42
22862;BME280;11598;50.652;6.172;2022-12-18T08:11:15;97127.09;;;-1.56;46.59
22862;BME280;11598;50.652;6.172;2022-12-18T08:21:18;97114.50;;;-1.14;43.12
22862;BME280;11598;50.652;6.172;2022-12-18T08:31:19;97105.31;;;-0.76;40.64
22862;BME280;11598;50.652;6.172;2022-12-18T08:41:20;97088.56;;;-0.46;40.49
22862;BME280;11598;50.652;6.172;2022-12-18T08:51:21;97106.78;;;-0.20;40.23
22862;BME280;11598;50.652;6.172;2022-12-18T09:01:22;97119.88;;;0.03;39.45
22862;BME280;11598;50.652;6.172;2022-12-18T09:11:25;97098.97;;;0.23;38.52
22862;BME280;11598;50.652;6.172;2022-12-18T09:21:26;97078.44;;;0.63;37.75
22862;BME280;11598;50.652;6.172;2022-12-18T09:31:26;97085.50;;;0.87;37.46
22862;BME280;11598;50.652;6.172;2022-12-18T09:41:51;97083.28;;;1.07;36.60
22862;BME280;11598;50.652;6.172;2022-12-18T09:52:03;97079.56;;;1.17;37.57
22862;BME280;11598;50.652;6.172;2022-12-18T10:02:19;97071.75;;;1.23;37.57
22862;BME280;11598;50.652;6.172;2022-12-18T10:12:29;97060.66;;;1.23;39.07
22862;BME280;11598;50.652;6.172;2022-12-18T10:33:17;97033.97;;;1.32;40.53
22862;BME280;11598;50.652;6.172;2022-12-18T10:43:38;97034.94;;;1.57;39.96
22862;BME280;11598;50.652;6.172;2022-12-18T10:53:41;97038.66;;;1.77;39.52
22862;BME280;11598;50.652;6.172;2022-12-18T11:03:46;97038.38;;;1.86;39.65
22862;BME280;11598;50.652;6.172;2022-12-18T11:14:02;97030.53;;;1.90;39.81
22862;BME280;11598;50.652;6.172;2022-12-18T11:24:03;97004.03;;;1.92;40.17
22862;BME280;11598;50.652;6.172;2022-12-18T11:34:14;96996.16;;;1.98;40.12
22862;BME280;11598;50.652;6.172;2022-12-18T11:44:28;96984.63;;;1.83;40.77
22862;BME280;11598;50.652;6.172;2022-12-18T11:54:31;96999.50;;;1.72;40.91
22862;BME280;11598;50.652;6.172;2022-12-18T12:14:55;97010.31;;;1.53;42.59
22862;BME280;11598;50.652;6.172;2022-12-18T12:55:44;96956.41;;;1.84;45.82
22862;BME280;11598;50.652;6.172;2022-12-18T13:05:53;96952.28;;;1.80;49.92
22862;BME280;11598;50.652;6.172;2022-12-18T13:16:06;96919.03;;;1.79;52.64
22862;BME280;11598;50.652;6.172;2022-12-18T13:46:20;96898.25;;;1.60;56.97
22862;BME280;11598;50.652;6.172;2022-12-18T13:56:24;96899.63;;;1.43;58.16
22862;BME280;11598;50.652;6.172;2022-12-18T14:06:24;96886.38;;;1.31;58.74
22862;BME280;11598;50.652;6.172;2022-12-18T14:16:25;96887.06;;;1.08;59.83
22862;BME280;11598;50.652;6.172;2022-12-18T14:26:28;96893.72;;;0.85;60.58
22862;BME280;11598;50.652;6.172;2022-12-18T14:36:29;96901.19;;;0.61;60.87
22862;BME280;11598;50.652;6.172;2022-12-18T14:46:34;96906.03;;;0.39;61.82
22862;BME280;11598;50.652;6.172;2022-12-18T14:56:36;96907.41;;;0.20;62.38
22862;BME280;11598;50.652;6.172;2022-12-18T15:06:43;96901.94;;;0.01;62.96
22862;BME280;11598;50.652;6.172;2022-12-18T15:16:43;96915.16;;;-0.17;63.44
22862;BME280;11598;50.652;6.172;2022-12-18T15:26:44;96899.34;;;-0.32;63.49
22862;BME280;11598;50.652;6.172;2022-12-18T15:36:44;96898.88;;;-0.48;63.66
22862;BME280;11598;50.652;6.172;2022-12-18T15:46:44;96899.94;;;-0.56;63.27
22862;BME280;11598;50.652;6.172;2022-12-18T15:56:45;96885.16;;;-0.44;61.65
22862;BME280;11598;50.652;6.172;2022-12-18T16:07:04;96873.69;;;-0.27;60.62
22862;BME280;11598;50.652;6.172;2022-12-18T16:17:10;96887.88;;;-0.15;59.09
22862;BME280;11598;50.652;6.172;2022-12-18T16:27:10;96881.63;;;-0.04;58.22
22862;BME280;11598;50.652;6.172;2022-12-18T16:37:12;96878.94;;;0.03;57.34
22862;BME280;11598;50.652;6.172;2022-12-18T16:47:13;96872.00;;;0.06;56.25
22862;BME280;11598;50.652;6.172;2022-12-18T16:57:16;96882.31;;;0.03;56.13
22862;BME280;11598;50.652;6.172;2022-12-18T17:07:17;96874.84;;;-0.05;55.80
22862;BME280;11598;50.652;6.172;2022-12-18T17:17:18;96875.69;;;-0.04;55.18
22862;BME280;11598;50.652;6.172;2022-12-18T17:27:18;96872.13;;;0.02;54.75
22862;BME280;11598;50.652;6.172;2022-12-18T17:37:18;96870.28;;;0.07;53.98
22862;BME280;11598;50.652;6.172;2022-12-18T17:47:19;96875.38;;;0.08;54.00
22862;BME280;11598;50.652;6.172;2022-12-18T17:57:19;96879.56;;;0.09;54.06
22862;BME280;11598;50.652;6.172;2022-12-18T18:07:20;96883.59;;;0.19;53.31
22862;BME280;11598;50.652;6.172;2022-12-18T18:17:20;96853.66;;;0.23;53.57
22862;BME280;11598;50.652;6.172;2022-12-18T18:27:20;96858.75;;;0.25;54.75
22862;BME280;11598;50.652;6.172;2022-12-18T18:37:21;96856.22;;;0.23;56.88
22862;BME280;11598;50.652;6.172;2022-12-18T18:47:21;96842.28;;;0.35;58.47
22862;BME280;11598;50.652;6.172;2022-12-18T18:57:22;96848.47;;;0.57;59.61
22862;BME280;11598;50.652;6.172;2022-12-18T19:07:22;96853.09;;;0.74;60.69
22862;BME280;11598;50.652;6.172;2022-12-18T19:17:23;96851.19;;;0.81;60.76
22862;BME280;11598;50.652;6.172;2022-12-18T19:27:23;96853.72;;;0.82;62.14
22862;BME280;11598;50.652;6.172;2022-12-18T19:37:24;96859.56;;;0.86;63.23
22862;BME280;11598;50.652;6.172;2022-12-18T19:47:24;96862.69;;;0.96;64.54
22862;BME280;11598;50.652;6.172;2022-12-18T19:57:24;96868.19;;;1.12;66.02
22862;BME280;11598;50.652;6.172;2022-12-18T20:07:25;96878.97;;;1.21;67.48
22862;BME280;11598;50.652;6.172;2022-12-18T20:17:25;96891.50;;;1.31;69.36
22862;BME280;11598;50.652;6.172;2022-12-18T20:27:26;96908.59;;;1.30;70.00
22862;BME280;11598;50.652;6.172;2022-12-18T20:37:26;96914.34;;;1.09;71.67
22862;BME280;11598;50.652;6.172;2022-12-18T20:47:26;96920.50;;;0.72;74.83
22862;BME280;11598;50.652;6.172;2022-12-18T20:57:27;96917.09;;;0.40;78.53
22862;BME280;11598;50.652;6.172;2022-12-18T21:07:27;96913.44;;;0.17;82.17
22862;BME280;11598;50.652;6.172;2022-12-18T21:17:27;96911.28;;;0.02;85.02
22862;BME280;11598;50.652;6.172;2022-12-18T21:27:28;96902.06;;;-0.04;87.41
22862;BME280;11598;50.652;6.172;2022-12-18T21:37:28;96907.25;;;-0.07;88.99
22862;BME280;11598;50.652;6.172;2022-12-18T21:47:29;96884.22;;;-0.05;90.99
22862;BME280;11598;50.652;6.172;2022-12-18T21:57:29;96878.75;;;0.09;92.23
22862;BME280;11598;50.652;6.172;2022-12-18T22:07:30;96879.19;;;0.25;93.23
22862;BME280;11598;50.652;6.172;2022-12-18T22:17:30;96853.38;;;0.34;93.89
22862;BME280;11598;50.652;6.172;2022-12-18T22:27:31;96843.28;;;0.29;94.56
22862;BME280;11598;50.652;6.172;2022-12-18T22:37:31;96838.16;;;0.31;94.51
22862;BME280;11598;50.652;6.172;2022-12-18T22:47:32;96841.66;;;0.27;94.23
22862;BME280;11598;50.652;6.172;2022-12-18T22:57:32;96817.75;;;0.28;94.18
22862;BME280;11598;50.652;6.172;2022-12-18T23:07:33;96796.53;;;0.26;94.72
22862;BME280;11598;50.652;6.172;2022-12-18T23:17:33;96788.72;;;0.30;95.82
22862;BME280;11598;50.652;6.172;2022-12-18T23:27:33;96777.44;;;0.37;96.62
22862;BME280;11598;50.652;6.172;2022-12-18T23:37:34;96747.38;;;0.47;97.27
22862;BME280;11598;50.652;6.172;2022-12-18T23:47:34;96717.47;;;0.49;97.48
22862;BME280;11598;50.652;6.172;2022-12-18T23:57:35;96735.19;;;0.55;98.34
